createdAt,value
2023-03-26T00:00:24.481Z,7.0
2023-03-26T00:05:24.522Z,7.0
2023-03-26T00:10:24.490Z,7.0
2023-03-26T00:15:24.512Z,7.0
2023-03-26T00:20:24.484Z,6.9
2023-03-26T00:25:24.493Z,6.9
2023-03-26T00:30:24.506Z,6.9
2023-03-26T00:35:24.516Z,6.9
2023-03-26T00:40:24.539Z,6.9
2023-03-26T00:45:24.572Z,6.9
2023-03-26T00:50:24.505Z,6.9
2023-03-26T00:55:24.515Z,6.9
2023-03-26T01:00:24.517Z,6.9
2023-03-26T01:05:24.576Z,6.9
2023-03-26T01:10:24.523Z,6.9
2023-03-26T01:15:24.695Z,6.9
2023-03-26T01:20:24.521Z,6.9
2023-03-26T01:25:24.532Z,6.8
2023-03-26T01:30:24.547Z,6.7
2023-03-26T01:35:24.567Z,6.7
2023-03-26T01:40:24.542Z,6.7
2023-03-26T01:45:24.622Z,6.7
2023-03-26T01:50:24.551Z,6.7
2023-03-26T01:55:24.543Z,6.8
2023-03-26T02:00:24.544Z,6.8
2023-03-26T02:05:24.555Z,6.7
2023-03-26T02:10:24.559Z,6.5
2023-03-26T02:15:24.670Z,6.5
2023-03-26T02:20:24.558Z,6.5
2023-03-26T02:25:24.611Z,6.5
2023-03-26T02:30:24.568Z,6.5
2023-03-26T02:35:24.627Z,6.5
2023-03-26T02:40:24.568Z,6.4
2023-03-26T02:45:24.609Z,6.4
2023-03-26T02:50:24.576Z,6.3
2023-03-26T02:55:24.595Z,6.3
2023-03-26T03:00:24.576Z,6.2
2023-03-26T03:05:24.574Z,6.2
2023-03-26T03:10:24.581Z,6.2
2023-03-26T03:15:24.719Z,6.4
2023-03-26T03:20:24.596Z,6.5
2023-03-26T03:25:24.598Z,6.6
2023-03-26T03:30:24.597Z,6.7
2023-03-26T03:35:24.664Z,6.7
2023-03-26T03:40:24.600Z,6.7
2023-03-26T03:45:24.779Z,6.8
2023-03-26T03:50:24.613Z,6.8
2023-03-26T03:55:24.618Z,6.7
2023-03-26T04:00:24.622Z,6.7
2023-03-26T04:05:24.614Z,6.8
2023-03-26T04:10:24.627Z,6.8
2023-03-26T04:15:24.647Z,6.8
2023-03-26T04:20:24.634Z,6.8
2023-03-26T04:25:24.633Z,6.8
2023-03-26T04:30:24.643Z,6.8
2023-03-26T04:35:24.660Z,6.8
2023-03-26T04:40:24.635Z,6.9
2023-03-26T04:45:24.766Z,6.8
2023-03-26T04:50:24.657Z,6.8
2023-03-26T04:55:24.677Z,6.8
2023-03-26T05:00:24.654Z,6.8
2023-03-26T05:05:24.653Z,6.7
2023-03-26T05:10:24.648Z,6.7
2023-03-26T05:15:24.863Z,6.7
2023-03-26T05:20:24.656Z,6.8
2023-03-26T05:25:24.656Z,6.9
2023-03-26T05:30:24.666Z,6.9
2023-03-26T05:35:24.702Z,6.9
2023-03-26T05:40:24.683Z,6.9
2023-03-26T05:45:24.807Z,7.0
2023-03-26T05:50:24.683Z,7.0
2023-03-26T05:55:24.697Z,7.0
2023-03-26T06:00:24.682Z,7.0
2023-03-26T06:05:24.682Z,7.0
2023-03-26T06:10:24.689Z,7.1
2023-03-26T06:15:24.838Z,7.2
2023-03-26T06:20:24.703Z,7.2
2023-03-26T06:25:24.710Z,7.2
2023-03-26T06:30:24.722Z,7.2
2023-03-26T06:35:24.708Z,7.3
2023-03-26T06:40:24.784Z,7.3
2023-03-26T06:45:24.838Z,7.4
2023-03-26T06:50:24.762Z,7.5
2023-03-26T06:55:24.726Z,7.6
2023-03-26T07:00:24.768Z,7.6
2023-03-26T07:05:24.731Z,7.7
2023-03-26T07:10:24.735Z,7.8
2023-03-26T07:15:24.853Z,7.9
2023-03-26T07:20:24.746Z,8.0
2023-03-26T07:25:24.732Z,7.9
2023-03-26T07:30:24.749Z,7.9
2023-03-26T07:35:24.773Z,7.8
2023-03-26T07:40:24.747Z,7.7
2023-03-26T07:45:24.780Z,7.6
2023-03-26T07:50:24.749Z,7.6
2023-03-26T07:55:24.761Z,7.5
2023-03-26T08:00:24.803Z,7.6
2023-03-26T08:05:24.759Z,7.5
2023-03-26T08:10:24.760Z,7.5
2023-03-26T08:15:24.911Z,7.5
2023-03-26T08:20:24.768Z,7.4
2023-03-26T08:25:24.768Z,7.5
2023-03-26T08:30:24.792Z,7.4
2023-03-26T08:35:24.817Z,7.4
2023-03-26T08:40:24.775Z,7.6
2023-03-26T08:45:24.867Z,7.6
2023-03-26T08:50:24.800Z,7.7
2023-03-26T08:55:24.783Z,7.6
2023-03-26T09:00:24.800Z,7.6
2023-03-26T09:05:24.784Z,7.7
2023-03-26T09:10:24.791Z,7.7
2023-03-26T09:15:24.926Z,7.8
2023-03-26T09:20:24.816Z,7.9
2023-03-26T09:25:24.810Z,7.9
2023-03-26T09:30:24.824Z,7.9
2023-03-26T09:35:24.835Z,8.0
2023-03-26T09:40:24.816Z,8.1
2023-03-26T09:45:25.015Z,8.0
2023-03-26T09:50:24.836Z,8.0
2023-03-26T09:55:24.827Z,7.9
2023-03-26T10:00:24.815Z,7.7
2023-03-26T10:05:24.826Z,7.7
2023-03-26T10:10:24.830Z,7.6
2023-03-26T10:15:25.247Z,7.6
2023-03-26T10:20:24.846Z,7.5
2023-03-26T10:25:24.881Z,7.6
2023-03-26T10:30:24.849Z,7.6
2023-03-26T10:35:24.888Z,7.7
2023-03-26T10:40:24.843Z,7.8
2023-03-26T10:45:24.977Z,7.6
2023-03-26T10:50:24.846Z,7.6
2023-03-26T10:55:25.535Z,7.7
2023-03-26T11:00:24.874Z,7.7
2023-03-26T11:05:24.873Z,7.8
2023-03-26T11:10:24.866Z,7.9
2023-03-26T11:15:24.950Z,8.0
2023-03-26T11:20:24.871Z,7.8
2023-03-26T11:25:24.873Z,7.9
2023-03-26T11:30:24.876Z,7.8
2023-03-26T11:35:39.895Z,7.7
2023-03-26T11:40:24.879Z,7.7
2023-03-26T11:45:24.931Z,7.6
2023-03-26T11:50:24.886Z,7.4
2023-03-26T11:55:24.928Z,7.4
2023-03-26T12:00:24.893Z,7.3
2023-03-26T12:05:24.978Z,7.3
2023-03-26T12:10:24.933Z,7.4
2023-03-26T12:15:24.995Z,7.6
2023-03-26T12:20:24.906Z,7.8
2023-03-26T12:25:24.977Z,8.0
2023-03-26T12:30:24.904Z,8.0
2023-03-26T12:35:24.903Z,8.2
2023-03-26T12:40:24.919Z,8.3
2023-03-26T12:45:25.007Z,8.3
2023-03-26T12:50:34.298Z,8.2
2023-03-26T12:55:24.927Z,8.3
2023-03-26T13:00:24.920Z,8.4
2023-03-26T13:05:24.931Z,8.4
2023-03-26T13:10:24.934Z,8.5
2023-03-26T13:15:25.068Z,8.5
2023-03-26T13:20:24.947Z,8.5
2023-03-26T13:25:24.951Z,8.7
2023-03-26T13:30:24.939Z,8.5
2023-03-26T13:35:24.990Z,8.7
2023-03-26T13:40:24.960Z,8.6
2023-03-26T13:45:24.985Z,8.4
2023-03-26T13:50:24.957Z,8.4
2023-03-26T13:55:24.960Z,8.5
2023-03-26T14:00:24.964Z,8.7
2023-03-26T14:05:24.974Z,9.1
2023-03-26T14:10:24.988Z,8.9
2023-03-26T14:15:24.987Z,8.7
2023-03-26T14:20:24.970Z,8.6
2023-03-26T14:25:24.986Z,8.5
2023-03-26T14:30:24.975Z,8.2
2023-03-26T14:35:25.060Z,8.1
2023-03-26T14:40:24.983Z,8.1
2023-03-26T14:45:25.021Z,8.0
2023-03-26T14:50:24.986Z,7.8
2023-03-26T14:55:24.991Z,7.7
2023-03-26T15:00:24.998Z,7.6
2023-03-26T15:05:25.011Z,7.5
2023-03-26T15:10:25.005Z,7.5
2023-03-26T15:15:25.057Z,7.5
2023-03-26T15:20:25.011Z,7.5
2023-03-26T15:25:25.012Z,7.4
2023-03-26T15:30:25.035Z,7.5
2023-03-26T15:35:25.029Z,7.3
2023-03-26T15:40:25.014Z,7.2
2023-03-26T15:45:25.059Z,7.2
2023-03-26T15:50:25.022Z,7.2
2023-03-26T15:55:25.022Z,7.2
2023-03-26T16:00:25.031Z,7.2
2023-03-26T16:05:25.113Z,7.1
2023-03-26T16:10:25.031Z,6.9
2023-03-26T16:15:25.170Z,6.9
2023-03-26T16:20:25.038Z,6.9
2023-03-26T16:25:28.294Z,7.0
2023-03-26T16:30:25.043Z,7.0
2023-03-26T16:35:25.049Z,6.9
2023-03-26T16:40:25.062Z,6.8
2023-03-26T16:45:25.075Z,6.7
2023-03-26T16:50:25.052Z,6.6
2023-03-26T16:55:25.064Z,6.6
2023-03-26T17:00:25.055Z,6.5
2023-03-26T17:05:25.069Z,6.5
2023-03-26T17:10:25.068Z,6.4
2023-03-26T17:15:25.172Z,6.3
2023-03-26T17:20:25.074Z,6.2
2023-03-26T17:25:25.072Z,6.2
2023-03-26T17:30:25.076Z,6.1
2023-03-26T17:35:25.086Z,6.0
2023-03-26T17:40:25.098Z,6.0
2023-03-26T17:45:25.224Z,5.9
2023-03-26T17:50:25.086Z,5.8
2023-03-26T17:55:25.092Z,5.8
2023-03-26T18:00:25.105Z,5.8
2023-03-26T18:05:25.110Z,5.7
2023-03-26T18:10:25.113Z,5.6
2023-03-26T18:15:25.236Z,5.6
2023-03-26T18:20:25.138Z,5.5
2023-03-26T18:25:25.150Z,5.3
2023-03-26T18:30:25.116Z,5.1
2023-03-26T18:35:25.150Z,5.0
2023-03-26T18:40:25.120Z,5.0
2023-03-26T18:45:25.310Z,5.0
2023-03-26T18:50:25.125Z,4.9
2023-03-26T18:55:25.121Z,4.8
2023-03-26T19:00:25.137Z,4.7
2023-03-26T19:05:25.129Z,4.5
2023-03-26T19:10:25.141Z,4.3
2023-03-26T19:15:25.171Z,4.2
2023-03-26T19:20:25.142Z,4.2
2023-03-26T19:25:25.157Z,4.1
2023-03-26T19:30:25.140Z,4.2
2023-03-26T19:35:25.167Z,4.0
2023-03-26T19:40:25.157Z,3.9
2023-03-26T19:45:25.181Z,3.7
2023-03-26T19:50:25.157Z,3.5
2023-03-26T19:55:25.165Z,3.5
2023-03-26T20:00:25.176Z,3.5
2023-03-26T20:05:25.190Z,3.3
2023-03-26T20:10:25.180Z,3.3
2023-03-26T20:15:25.312Z,3.3
2023-03-26T20:20:25.181Z,3.3
2023-03-26T20:25:26.056Z,3.3
2023-03-26T20:30:36.988Z,3.4
2023-03-26T20:35:36.173Z,3.6
2023-03-26T20:40:25.178Z,3.6
2023-03-26T20:45:25.309Z,3.6
2023-03-26T20:50:25.187Z,3.6
2023-03-26T20:55:25.191Z,3.6
2023-03-26T21:00:25.198Z,3.6
2023-03-26T21:05:25.197Z,3.4
2023-03-26T21:10:25.205Z,3.4
2023-03-26T21:15:25.285Z,3.3
2023-03-26T21:20:25.204Z,3.1
2023-03-26T21:25:25.211Z,3.1
2023-03-26T21:30:25.209Z,3.0
2023-03-26T21:35:25.278Z,3.0
2023-03-26T21:40:25.225Z,2.9
2023-03-26T21:45:25.362Z,2.8
2023-03-26T21:50:25.234Z,2.7
2023-03-26T21:55:25.222Z,2.6
2023-03-26T22:00:30.796Z,2.6
2023-03-26T22:05:25.234Z,2.5
2023-03-26T22:10:25.251Z,2.4
2023-03-26T22:15:25.341Z,2.4
2023-03-26T22:20:25.347Z,2.4
2023-03-26T22:25:25.252Z,2.4
2023-03-26T22:30:25.246Z,2.3
2023-03-26T22:35:25.276Z,2.3
2023-03-26T22:40:25.252Z,2.3
2023-03-26T22:45:25.288Z,2.4
2023-03-26T22:50:25.262Z,2.6
2023-03-26T22:55:28.757Z,2.7
2023-03-26T23:00:25.272Z,2.7
2023-03-26T23:05:25.276Z,2.5
2023-03-26T23:10:25.274Z,2.5
2023-03-26T23:15:25.405Z,2.3
2023-03-26T23:20:25.273Z,2.3
2023-03-26T23:25:25.285Z,2.3
2023-03-26T23:30:25.280Z,2.2
2023-03-26T23:35:25.305Z,2.2
2023-03-26T23:40:25.290Z,2.2
2023-03-26T23:45:25.343Z,2.2
2023-03-26T23:50:25.292Z,2.1
2023-03-26T23:55:25.295Z,2.2
